createdAt,value
2023-01-07T00:00:27.487Z,996.33
2023-01-07T00:01:27.449Z,996.25
2023-01-07T00:02:27.486Z,996.26
2023-01-07T00:03:27.437Z,996.26
2023-01-07T00:04:27.428Z,996.30
2023-01-07T00:05:27.426Z,996.23
2023-01-07T00:06:27.414Z,996.19
2023-01-07T00:07:27.440Z,996.25
2023-01-07T00:08:27.400Z,996.20
2023-01-07T00:09:27.389Z,996.19
2023-01-07T00:10:27.384Z,996.14
2023-01-07T00:11:27.367Z,996.10
2023-01-07T00:12:27.359Z,996.18
2023-01-07T00:13:27.384Z,996.10
2023-01-07T00:14:27.378Z,996.12
2023-01-07T00:15:27.422Z,996.16
2023-01-07T00:16:27.420Z,996.12
2023-01-07T00:17:27.338Z,996.09
2023-01-07T00:18:27.418Z,996.06
2023-01-07T00:19:27.311Z,996.02
2023-01-07T00:20:27.304Z,996.08
2023-01-07T00:21:27.296Z,996.05
2023-01-07T00:22:27.291Z,996.04
2023-01-07T00:23:27.305Z,996.08
2023-01-07T00:24:27.270Z,996.07
2023-01-07T00:25:27.260Z,996.09
2023-01-07T00:26:27.257Z,996.11
2023-01-07T00:27:27.246Z,996.14
2023-01-07T00:28:27.264Z,996.05
2023-01-07T00:29:27.231Z,996.12
2023-01-07T00:30:27.223Z,996.10
2023-01-07T00:31:27.383Z,996.09
2023-01-07T00:32:27.205Z,996.10
2023-01-07T00:33:27.226Z,996.15
2023-01-07T00:34:27.188Z,996.08
2023-01-07T00:35:27.185Z,996.10
2023-01-07T00:36:27.172Z,996.06
2023-01-07T00:37:27.163Z,996.10
2023-01-07T00:38:27.181Z,996.10
2023-01-07T00:39:27.152Z,996.04
2023-01-07T00:40:27.144Z,996.03
2023-01-07T00:41:27.125Z,996.05
2023-01-07T00:42:27.131Z,996.01
2023-01-07T00:43:27.142Z,996.03
2023-01-07T00:44:27.114Z,996.03
2023-01-07T00:45:27.111Z,996.05
2023-01-07T00:46:27.194Z,995.99
2023-01-07T00:47:28.172Z,996.02
2023-01-07T00:48:27.099Z,996.02
2023-01-07T00:49:28.081Z,995.95
2023-01-07T00:50:27.063Z,996.00
2023-01-07T00:51:27.059Z,996.05
2023-01-07T00:52:27.045Z,995.91
2023-01-07T00:53:27.068Z,996.00
2023-01-07T00:54:27.060Z,995.94
2023-01-07T00:55:27.031Z,995.97
2023-01-07T00:56:27.023Z,996.00
2023-01-07T00:57:27.013Z,995.99
2023-01-07T00:58:27.032Z,995.89
2023-01-07T00:59:27.004Z,995.96
2023-01-07T01:00:26.989Z,995.93
2023-01-07T01:01:27.092Z,995.96
2023-01-07T01:02:27.030Z,995.93
2023-01-07T01:03:27.064Z,995.95
2023-01-07T01:04:26.961Z,995.95
2023-01-07T01:05:26.958Z,995.94
2023-01-07T01:06:26.946Z,995.93
2023-01-07T01:07:26.939Z,995.92
2023-01-07T01:08:26.953Z,995.92
2023-01-07T01:09:26.924Z,995.94
2023-01-07T01:10:26.913Z,995.96
2023-01-07T01:11:26.897Z,995.94
2023-01-07T01:12:26.892Z,995.99
2023-01-07T01:13:26.913Z,995.94
2023-01-07T01:14:26.876Z,995.95
2023-01-07T01:15:26.864Z,995.93
2023-01-07T01:16:26.944Z,995.95
2023-01-07T01:17:26.858Z,995.92
2023-01-07T01:18:26.872Z,995.93
2023-01-07T01:19:26.923Z,995.96
2023-01-07T01:20:26.818Z,995.89
2023-01-07T01:21:26.818Z,995.95
2023-01-07T01:22:26.816Z,995.98
2023-01-07T01:23:26.827Z,995.91
2023-01-07T01:24:26.798Z,995.94
2023-01-07T01:25:26.784Z,995.85
2023-01-07T01:26:26.776Z,995.83
2023-01-07T01:27:26.783Z,995.97
2023-01-07T01:28:26.791Z,995.91
2023-01-07T01:29:26.755Z,995.86
2023-01-07T01:30:26.743Z,995.89
2023-01-07T01:31:26.787Z,995.92
2023-01-07T01:32:26.741Z,995.88
2023-01-07T01:33:26.746Z,995.86
2023-01-07T01:34:26.725Z,995.86
2023-01-07T01:35:26.783Z,995.84
2023-01-07T01:36:26.695Z,995.84
2023-01-07T01:37:26.698Z,995.79
2023-01-07T01:38:26.708Z,995.80
2023-01-07T01:39:26.677Z,995.79
2023-01-07T01:40:26.671Z,995.82
2023-01-07T01:41:26.666Z,995.80
2023-01-07T01:42:26.657Z,995.80
2023-01-07T01:43:26.669Z,995.80
2023-01-07T01:44:26.633Z,995.73
2023-01-07T01:45:26.622Z,995.75
2023-01-07T01:46:26.644Z,995.74
2023-01-07T01:47:26.613Z,995.75
2023-01-07T01:48:26.630Z,995.81
2023-01-07T01:49:26.600Z,995.80
2023-01-07T01:50:26.593Z,995.74
2023-01-07T01:51:26.666Z,995.81
2023-01-07T01:52:26.572Z,995.80
2023-01-07T01:53:26.594Z,995.80
2023-01-07T01:54:26.561Z,995.82
2023-01-07T01:55:26.546Z,995.79
2023-01-07T01:56:26.536Z,995.80
2023-01-07T01:57:26.536Z,995.74
2023-01-07T01:58:26.553Z,995.81
2023-01-07T01:59:26.513Z,995.78
2023-01-07T02:00:26.509Z,995.77
2023-01-07T02:01:26.566Z,995.74
2023-01-07T02:02:27.527Z,995.71
2023-01-07T02:03:26.511Z,995.73
2023-01-07T02:04:26.480Z,995.67
2023-01-07T02:05:26.469Z,995.72
2023-01-07T02:06:26.477Z,995.68
2023-01-07T02:07:26.537Z,995.71
2023-01-07T02:08:26.474Z,995.71
2023-01-07T02:09:26.436Z,995.63
2023-01-07T02:10:26.428Z,995.70
2023-01-07T02:11:26.427Z,995.65
2023-01-07T02:12:26.409Z,995.65
2023-01-07T02:13:26.436Z,995.63
2023-01-07T02:14:26.397Z,995.75
2023-01-07T02:15:26.388Z,995.70
2023-01-07T02:16:26.410Z,995.69
2023-01-07T02:17:26.493Z,995.64
2023-01-07T02:18:26.394Z,995.70
2023-01-07T02:19:26.356Z,995.70
2023-01-07T02:20:26.357Z,995.72
2023-01-07T02:21:26.344Z,995.69
2023-01-07T02:22:26.333Z,995.66
2023-01-07T02:23:26.405Z,995.66
2023-01-07T02:24:26.347Z,995.68
2023-01-07T02:25:26.315Z,995.67
2023-01-07T02:26:26.305Z,995.62
2023-01-07T02:27:26.295Z,995.59
2023-01-07T02:28:26.285Z,995.61
2023-01-07T02:29:26.303Z,995.62
2023-01-07T02:30:26.268Z,995.59
2023-01-07T02:31:26.296Z,995.67
2023-01-07T02:32:26.261Z,995.66
2023-01-07T02:33:26.253Z,995.68
2023-01-07T02:34:26.266Z,995.66
2023-01-07T02:35:26.231Z,995.70
2023-01-07T02:36:26.228Z,995.61
2023-01-07T02:37:26.219Z,995.70
2023-01-07T02:38:26.235Z,995.62
2023-01-07T02:39:26.278Z,995.65
2023-01-07T02:40:26.193Z,995.66
2023-01-07T02:41:26.188Z,995.60
2023-01-07T02:42:26.181Z,995.68
2023-01-07T02:43:26.192Z,995.65
2023-01-07T02:44:26.168Z,995.71
2023-01-07T02:45:26.156Z,995.64
2023-01-07T02:46:26.146Z,995.68
2023-01-07T02:47:26.138Z,995.65
2023-01-07T02:48:26.161Z,995.65
2023-01-07T02:49:26.123Z,995.62
2023-01-07T02:50:26.114Z,995.65
2023-01-07T02:51:26.109Z,995.62
2023-01-07T02:52:27.098Z,995.62
2023-01-07T02:53:26.137Z,995.63
2023-01-07T02:54:26.088Z,995.63
2023-01-07T02:55:26.166Z,995.60
2023-01-07T02:56:26.072Z,995.62
2023-01-07T02:57:26.064Z,995.60
2023-01-07T02:58:26.081Z,995.59
2023-01-07T02:59:26.050Z,995.63
2023-01-07T03:00:26.029Z,995.57
2023-01-07T03:01:26.141Z,995.61
2023-01-07T03:02:26.017Z,995.64
2023-01-07T03:03:26.006Z,995.61
2023-01-07T03:04:26.060Z,995.60
2023-01-07T03:05:25.994Z,995.58
2023-01-07T03:06:25.984Z,995.55
2023-01-07T03:07:25.987Z,995.50
2023-01-07T03:08:25.969Z,995.58
2023-01-07T03:09:25.989Z,995.54
2023-01-07T03:10:25.962Z,995.53
2023-01-07T03:11:26.029Z,995.56
2023-01-07T03:12:25.942Z,995.52
2023-01-07T03:13:25.932Z,995.55
2023-01-07T03:14:25.950Z,995.51
2023-01-07T03:15:28.717Z,995.50
2023-01-07T03:16:25.949Z,995.55
2023-01-07T03:17:26.899Z,995.53
2023-01-07T03:18:25.895Z,995.52
2023-01-07T03:19:25.912Z,995.52
2023-01-07T03:20:25.882Z,995.47
2023-01-07T03:21:25.871Z,995.50
2023-01-07T03:22:25.863Z,995.47
2023-01-07T03:23:25.863Z,995.41
2023-01-07T03:24:25.878Z,995.47
2023-01-07T03:25:26.088Z,995.41
2023-01-07T03:26:25.901Z,995.48
2023-01-07T03:27:25.915Z,995.44
2023-01-07T03:28:25.820Z,995.42
2023-01-07T03:29:25.832Z,995.44
2023-01-07T03:30:25.801Z,995.41
2023-01-07T03:31:25.824Z,995.39
2023-01-07T03:32:25.783Z,995.38
2023-01-07T03:33:25.774Z,995.36
2023-01-07T03:34:25.796Z,995.47
2023-01-07T03:35:25.757Z,995.35
2023-01-07T03:36:25.749Z,995.37
2023-01-07T03:37:25.751Z,995.41
2023-01-07T03:38:25.739Z,995.37
2023-01-07T03:39:25.759Z,995.40
2023-01-07T03:40:25.728Z,995.36
2023-01-07T03:41:25.716Z,995.41
2023-01-07T03:42:25.718Z,995.35
2023-01-07T03:43:25.770Z,995.32
2023-01-07T03:44:25.720Z,995.38
2023-01-07T03:45:25.744Z,995.34
2023-01-07T03:46:25.673Z,995.32
2023-01-07T03:47:25.670Z,995.28
2023-01-07T03:48:25.658Z,995.30
2023-01-07T03:49:25.685Z,995.30
2023-01-07T03:50:25.647Z,995.23
2023-01-07T03:51:25.638Z,995.26
2023-01-07T03:52:25.634Z,995.24
2023-01-07T03:53:25.624Z,995.27
2023-01-07T03:54:25.636Z,995.23
2023-01-07T03:55:25.615Z,995.19
2023-01-07T03:56:25.595Z,995.23
2023-01-07T03:57:25.590Z,995.22
2023-01-07T03:58:25.585Z,995.21
2023-01-07T03:59:25.675Z,995.18
2023-01-07T04:00:25.568Z,995.21
2023-01-07T04:01:25.665Z,995.18
2023-01-07T04:02:25.546Z,995.12
2023-01-07T04:03:25.541Z,995.14
2023-01-07T04:04:25.629Z,995.10
2023-01-07T04:05:25.524Z,995.10
2023-01-07T04:06:25.514Z,995.10
2023-01-07T04:07:25.508Z,995.12
2023-01-07T04:08:25.499Z,995.09
2023-01-07T04:09:25.517Z,995.07
2023-01-07T04:10:25.477Z,995.08
2023-01-07T04:11:25.477Z,995.01
2023-01-07T04:12:25.471Z,995.06
2023-01-07T04:13:25.463Z,995.00
2023-01-07T04:14:25.483Z,995.04
2023-01-07T04:15:25.567Z,995.00
2023-01-07T04:16:25.509Z,994.96
2023-01-07T04:17:25.428Z,995.02
2023-01-07T04:18:25.434Z,994.97
2023-01-07T04:19:25.438Z,995.01
2023-01-07T04:20:25.407Z,995.03
2023-01-07T04:21:25.398Z,994.97
2023-01-07T04:22:25.401Z,994.98
2023-01-07T04:23:25.385Z,994.93
2023-01-07T04:24:25.405Z,994.97
2023-01-07T04:25:25.368Z,994.99
2023-01-07T04:26:25.360Z,994.92
2023-01-07T04:27:25.361Z,994.92
2023-01-07T04:28:25.352Z,994.89
2023-01-07T04:29:25.335Z,994.90
2023-01-07T04:30:25.428Z,994.86
2023-01-07T04:31:25.395Z,994.89
2023-01-07T04:32:25.319Z,994.85
2023-01-07T04:33:25.305Z,994.86
2023-01-07T04:34:25.316Z,994.76
2023-01-07T04:35:25.313Z,994.83
2023-01-07T04:36:25.280Z,994.89
2023-01-07T04:37:25.274Z,994.88
2023-01-07T04:38:25.270Z,994.83
2023-01-07T04:39:25.261Z,994.79
2023-01-07T04:40:25.285Z,994.72
2023-01-07T04:41:25.250Z,994.78
2023-01-07T04:42:25.238Z,994.76
2023-01-07T04:43:25.234Z,994.74
2023-01-07T04:44:25.220Z,994.74
2023-01-07T04:45:25.239Z,994.73
2023-01-07T04:46:25.298Z,994.73
2023-01-07T04:47:25.291Z,994.68
2023-01-07T04:48:25.337Z,994.68
2023-01-07T04:49:25.176Z,994.67
2023-01-07T04:50:25.201Z,994.64
2023-01-07T04:51:25.163Z,994.68
2023-01-07T04:52:25.163Z,994.61
2023-01-07T04:53:25.153Z,994.69
2023-01-07T04:54:25.144Z,994.71
2023-01-07T04:55:25.161Z,994.75
2023-01-07T04:56:25.134Z,994.66
2023-01-07T04:57:25.123Z,994.69
2023-01-07T04:58:25.112Z,994.65
2023-01-07T04:59:25.128Z,994.61
2023-01-07T05:00:25.119Z,994.66
2023-01-07T05:01:25.161Z,994.61
2023-01-07T05:02:25.079Z,994.58
2023-01-07T05:03:25.158Z,994.66
2023-01-07T05:04:25.132Z,994.55
2023-01-07T05:05:25.088Z,994.61
2023-01-07T05:06:25.042Z,994.61
2023-01-07T05:07:26.045Z,994.51
2023-01-07T05:08:25.041Z,994.52
2023-01-07T05:09:25.029Z,994.47
2023-01-07T05:10:25.054Z,994.50
2023-01-07T05:11:25.017Z,994.46
2023-01-07T05:12:25.007Z,994.43
2023-01-07T05:13:24.997Z,994.48
2023-01-07T05:14:24.991Z,994.48
2023-01-07T05:15:25.011Z,994.43
2023-01-07T05:16:25.010Z,994.36
2023-01-07T05:17:24.972Z,994.41
2023-01-07T05:18:24.967Z,994.37
2023-01-07T05:19:25.023Z,994.36
2023-01-07T05:20:24.975Z,994.37
2023-01-07T05:21:24.933Z,994.37
2023-01-07T05:22:24.922Z,994.32
2023-01-07T05:23:24.953Z,994.37
2023-01-07T05:24:24.912Z,994.31
2023-01-07T05:25:24.927Z,994.32
2023-01-07T05:26:24.912Z,994.29
2023-01-07T05:27:24.904Z,994.31
2023-01-07T05:28:24.878Z,994.31
2023-01-07T05:29:24.867Z,994.28
2023-01-07T05:30:24.885Z,994.26
2023-01-07T05:31:24.860Z,994.32
2023-01-07T05:32:24.853Z,994.33
2023-01-07T05:33:24.846Z,994.32
2023-01-07T05:34:24.832Z,994.33
2023-01-07T05:35:24.939Z,994.26
2023-01-07T05:36:24.827Z,994.21
2023-01-07T05:37:24.811Z,994.26
2023-01-07T05:38:24.800Z,994.26
2023-01-07T05:39:24.799Z,994.27
2023-01-07T05:40:24.812Z,994.21
2023-01-07T05:41:24.783Z,994.25
2023-01-07T05:42:24.810Z,994.30
2023-01-07T05:43:24.767Z,994.27
2023-01-07T05:44:24.768Z,994.26
2023-01-07T05:45:24.773Z,994.21
2023-01-07T05:46:24.751Z,994.22
2023-01-07T05:47:24.736Z,994.22
2023-01-07T05:48:24.721Z,994.32
2023-01-07T05:49:24.715Z,994.26
2023-01-07T05:50:24.736Z,994.31
2023-01-07T05:51:24.774Z,994.24
2023-01-07T05:52:24.696Z,994.29
2023-01-07T05:53:24.688Z,994.23
2023-01-07T05:54:24.691Z,994.21
2023-01-07T05:55:24.698Z,994.25
2023-01-07T05:56:24.674Z,994.17
2023-01-07T05:57:24.657Z,994.19
2023-01-07T05:58:24.658Z,994.23
2023-01-07T05:59:24.650Z,994.21
2023-01-07T06:00:24.667Z,994.25
2023-01-07T06:01:24.700Z,994.19
2023-01-07T06:02:24.622Z,994.20
2023-01-07T06:03:24.663Z,994.16
2023-01-07T06:04:24.667Z,994.15
2023-01-07T06:05:24.633Z,994.17
2023-01-07T06:06:24.594Z,994.19
2023-01-07T06:07:24.596Z,994.16
2023-01-07T06:08:24.571Z,994.17
2023-01-07T06:09:25.570Z,994.18
2023-01-07T06:10:24.558Z,994.16
2023-01-07T06:11:24.579Z,994.22
2023-01-07T06:12:24.563Z,994.21
2023-01-07T06:13:24.536Z,994.20
2023-01-07T06:14:24.543Z,994.18
2023-01-07T06:15:24.623Z,994.14
2023-01-07T06:16:24.540Z,994.11
2023-01-07T06:17:24.508Z,994.19
2023-01-07T06:18:24.509Z,994.12
2023-01-07T06:19:24.495Z,994.16
2023-01-07T06:20:24.482Z,994.16
2023-01-07T06:21:24.501Z,994.19
2023-01-07T06:22:24.465Z,994.16
2023-01-07T06:23:24.608Z,994.14
2023-01-07T06:24:24.455Z,994.18
2023-01-07T06:25:24.443Z,994.20
2023-01-07T06:26:24.461Z,994.16
2023-01-07T06:27:24.427Z,994.21
2023-01-07T06:28:24.427Z,994.18
2023-01-07T06:29:24.414Z,994.13
2023-01-07T06:30:24.414Z,994.18
2023-01-07T06:31:24.451Z,994.20
2023-01-07T06:32:24.390Z,994.19
2023-01-07T06:33:24.390Z,994.22
2023-01-07T06:34:24.374Z,994.22
2023-01-07T06:35:24.370Z,994.16
2023-01-07T06:36:24.389Z,994.12
2023-01-07T06:37:24.350Z,994.20
2023-01-07T06:38:24.343Z,994.15
2023-01-07T06:39:24.411Z,994.18
2023-01-07T06:40:24.325Z,994.17
2023-01-07T06:41:24.344Z,994.10
2023-01-07T06:42:24.315Z,994.20
2023-01-07T06:43:24.302Z,994.18
2023-01-07T06:44:24.295Z,994.14
2023-01-07T06:45:24.289Z,994.16
2023-01-07T06:46:24.446Z,994.07
2023-01-07T06:47:24.274Z,994.03
2023-01-07T06:48:24.259Z,994.04
2023-01-07T06:49:24.241Z,994.03
2023-01-07T06:50:25.251Z,994.08
2023-01-07T06:51:24.272Z,994.07
2023-01-07T06:52:24.223Z,994.02
2023-01-07T06:53:24.240Z,994.04
2023-01-07T06:54:24.215Z,993.97
2023-01-07T06:55:24.282Z,993.96
2023-01-07T06:56:24.223Z,993.99
2023-01-07T06:57:24.188Z,993.99
2023-01-07T06:58:24.179Z,994.04
2023-01-07T06:59:24.193Z,993.96
2023-01-07T07:00:24.165Z,994.00
2023-01-07T07:01:24.291Z,993.97
2023-01-07T07:02:24.251Z,993.92
2023-01-07T07:03:24.142Z,993.95
2023-01-07T07:04:24.128Z,993.95
2023-01-07T07:05:24.120Z,993.92
2023-01-07T07:06:24.132Z,993.93
2023-01-07T07:07:24.114Z,993.92
2023-01-07T07:08:24.101Z,993.99
2023-01-07T07:09:24.090Z,993.96
2023-01-07T07:10:24.077Z,993.98
2023-01-07T07:11:24.173Z,993.98
2023-01-07T07:12:24.062Z,993.88
2023-01-07T07:13:24.056Z,993.80
2023-01-07T07:14:24.047Z,993.86
2023-01-07T07:15:24.040Z,993.87
2023-01-07T07:16:24.171Z,993.84
2023-01-07T07:17:24.027Z,993.84
2023-01-07T07:18:24.022Z,993.83
2023-01-07T07:19:24.008Z,993.88
2023-01-07T07:20:24.001Z,993.82
2023-01-07T07:21:24.028Z,993.85
2023-01-07T07:22:23.983Z,993.85
2023-01-07T07:23:23.983Z,993.84
2023-01-07T07:24:23.974Z,993.90
2023-01-07T07:25:23.965Z,993.85
2023-01-07T07:26:23.981Z,993.81
2023-01-07T07:27:24.021Z,993.84
2023-01-07T07:28:23.943Z,993.80
2023-01-07T07:29:23.935Z,993.84
2023-01-07T07:30:45.495Z,993.83
2023-01-07T07:31:24.982Z,993.84
2023-01-07T07:32:23.907Z,993.81
2023-01-07T07:33:23.902Z,993.81
2023-01-07T07:34:23.891Z,993.80
2023-01-07T07:35:23.886Z,993.85
2023-01-07T07:36:23.902Z,993.86
2023-01-07T07:37:23.865Z,993.80
2023-01-07T07:38:23.869Z,993.89
2023-01-07T07:39:23.852Z,993.85
2023-01-07T07:40:23.847Z,993.84
2023-01-07T07:41:23.944Z,993.80
2023-01-07T07:42:24.829Z,993.84
2023-01-07T07:43:23.912Z,993.89
2023-01-07T07:44:23.824Z,993.85
2023-01-07T07:45:23.806Z,993.83
2023-01-07T07:46:23.848Z,993.82
2023-01-07T07:47:23.785Z,993.79
2023-01-07T07:48:23.785Z,993.80
2023-01-07T07:49:23.771Z,993.77
2023-01-07T07:50:23.772Z,993.75
2023-01-07T07:51:23.787Z,993.79
2023-01-07T07:52:23.749Z,993.84
2023-01-07T07:53:23.746Z,993.70
2023-01-07T07:54:24.084Z,993.74
2023-01-07T07:55:26.427Z,993.76
2023-01-07T07:56:23.754Z,993.74
2023-01-07T07:57:23.717Z,993.64
2023-01-07T07:58:23.711Z,993.71
2023-01-07T07:59:23.774Z,993.74
2023-01-07T08:00:23.697Z,993.71
2023-01-07T08:01:23.827Z,993.72
2023-01-07T08:02:23.734Z,993.72
2023-01-07T08:03:23.759Z,993.72
2023-01-07T08:04:23.665Z,993.83
2023-01-07T08:05:23.660Z,993.75
2023-01-07T08:06:23.671Z,993.70
2023-01-07T08:07:32.247Z,993.70
2023-01-07T08:08:24.626Z,993.72
2023-01-07T08:09:23.614Z,993.65
2023-01-07T08:10:23.606Z,993.60
2023-01-07T08:11:23.632Z,993.71
2023-01-07T08:12:23.597Z,993.71
2023-01-07T08:13:23.583Z,993.63
2023-01-07T08:14:23.578Z,993.63
2023-01-07T08:15:23.650Z,993.56
2023-01-07T08:16:23.625Z,993.57
2023-01-07T08:17:23.553Z,993.54
2023-01-07T08:18:23.547Z,993.61
2023-01-07T08:19:23.544Z,993.58
2023-01-07T08:20:23.536Z,993.63
2023-01-07T08:21:23.557Z,993.63
2023-01-07T08:22:23.513Z,993.68
2023-01-07T08:23:23.513Z,993.65
2023-01-07T08:24:23.498Z,993.54
2023-01-07T08:25:23.497Z,993.57
2023-01-07T08:26:23.500Z,993.54
2023-01-07T08:27:24.484Z,993.58
2023-01-07T08:28:23.472Z,993.57
2023-01-07T08:29:23.455Z,993.55
2023-01-07T08:30:23.474Z,993.51
2023-01-07T08:31:23.592Z,993.46
2023-01-07T08:32:23.434Z,993.44
2023-01-07T08:33:23.422Z,993.39
2023-01-07T08:34:24.976Z,993.45
2023-01-07T08:35:24.409Z,993.38
2023-01-07T08:36:23.815Z,993.43
2023-01-07T08:37:24.412Z,993.39
2023-01-07T08:38:23.530Z,993.40
2023-01-07T08:39:23.406Z,993.36
2023-01-07T08:40:23.384Z,993.33
2023-01-07T08:41:23.393Z,993.36
2023-01-07T08:42:23.347Z,993.36
2023-01-07T08:43:23.347Z,993.42
2023-01-07T08:44:23.386Z,993.34
2023-01-07T08:45:23.372Z,993.39
2023-01-07T08:46:23.409Z,993.41
2023-01-07T08:47:23.394Z,993.39
2023-01-07T08:48:23.310Z,993.37
2023-01-07T08:49:23.293Z,993.42
2023-01-07T08:50:23.297Z,993.37
2023-01-07T08:51:23.296Z,993.38
2023-01-07T08:52:23.273Z,993.34
2023-01-07T08:53:23.264Z,993.35
2023-01-07T08:54:23.263Z,993.37
2023-01-07T08:55:23.260Z,993.30
2023-01-07T08:56:23.291Z,993.37
2023-01-07T08:57:23.246Z,993.41
2023-01-07T08:58:23.227Z,993.33
2023-01-07T08:59:23.224Z,993.33
2023-01-07T09:00:23.230Z,993.32
2023-01-07T09:01:23.427Z,993.34
2023-01-07T09:02:23.256Z,993.34
2023-01-07T09:03:23.270Z,993.35
2023-01-07T09:04:23.201Z,993.33
2023-01-07T09:05:23.183Z,993.39
2023-01-07T09:06:23.205Z,993.34
2023-01-07T09:07:23.174Z,993.37
2023-01-07T09:08:23.152Z,993.36
2023-01-07T09:09:23.202Z,993.37
2023-01-07T09:10:23.156Z,993.34
2023-01-07T09:11:23.166Z,993.33
2023-01-07T09:12:23.110Z,993.38
2023-01-07T09:13:24.112Z,993.35
2023-01-07T09:14:23.142Z,993.30
2023-01-07T09:15:23.141Z,993.34
2023-01-07T09:16:23.209Z,993.31
2023-01-07T09:17:24.257Z,993.34
2023-01-07T09:18:24.077Z,993.31
2023-01-07T09:19:23.156Z,993.36
2023-01-07T09:20:24.106Z,993.30
2023-01-07T09:21:23.086Z,993.37
2023-01-07T09:22:23.040Z,993.31
2023-01-07T09:23:23.040Z,993.38
2023-01-07T09:24:23.021Z,993.38
2023-01-07T09:25:23.022Z,993.35
2023-01-07T09:26:23.032Z,993.35
2023-01-07T09:27:23.001Z,993.36
2023-01-07T09:28:23.009Z,993.32
2023-01-07T09:29:22.990Z,993.33
2023-01-07T09:30:23.027Z,993.29
2023-01-07T09:31:23.132Z,993.29
2023-01-07T09:32:22.962Z,993.28
2023-01-07T09:33:22.962Z,993.31
2023-01-07T09:34:22.953Z,993.31
2023-01-07T09:35:23.264Z,993.36
2023-01-07T09:36:22.959Z,993.31
2023-01-07T09:37:22.923Z,993.25
2023-01-07T09:38:22.908Z,993.32
2023-01-07T09:39:22.915Z,993.22
2023-01-07T09:40:23.105Z,993.25
2023-01-07T09:41:22.909Z,993.26
2023-01-07T09:42:22.879Z,993.28
2023-01-07T09:43:22.879Z,993.31
2023-01-07T09:44:22.863Z,993.26
2023-01-07T09:45:22.857Z,993.22
2023-01-07T09:46:22.886Z,993.29
2023-01-07T09:47:22.854Z,993.23
2023-01-07T09:48:22.838Z,993.23
2023-01-07T09:49:22.827Z,993.24
2023-01-07T09:50:25.126Z,993.30
2023-01-07T09:51:23.932Z,993.33
2023-01-07T09:52:22.813Z,993.30
2023-01-07T09:53:22.796Z,993.30
2023-01-07T09:54:22.805Z,993.22
2023-01-07T09:55:22.790Z,993.26
2023-01-07T09:56:22.803Z,993.26
2023-01-07T09:57:22.778Z,993.27
2023-01-07T09:58:22.764Z,993.25
2023-01-07T09:59:22.756Z,993.23
2023-01-07T10:00:22.757Z,993.21
2023-01-07T10:01:22.841Z,993.21
2023-01-07T10:02:22.767Z,993.26
2023-01-07T10:03:22.726Z,993.19
2023-01-07T10:04:22.737Z,993.17
2023-01-07T10:05:22.712Z,993.14
2023-01-07T10:06:38.470Z,993.09
2023-01-07T10:07:24.779Z,993.10
2023-01-07T10:08:31.017Z,993.07
2023-01-07T10:09:23.717Z,993.09
2023-01-07T10:10:22.664Z,993.12
2023-01-07T10:11:22.687Z,993.11
2023-01-07T10:12:22.667Z,993.06
2023-01-07T10:13:22.646Z,993.07
2023-01-07T10:14:22.685Z,993.05
2023-01-07T10:15:22.646Z,993.09
2023-01-07T10:16:22.769Z,993.06
2023-01-07T10:17:22.624Z,993.08
2023-01-07T10:18:22.605Z,993.00
2023-01-07T10:19:22.599Z,993.07
2023-01-07T10:20:22.702Z,993.06
2023-01-07T10:21:22.621Z,992.96
2023-01-07T10:22:22.674Z,993.00
2023-01-07T10:23:22.652Z,992.96
2023-01-07T10:24:22.557Z,992.86
2023-01-07T10:25:22.552Z,992.89
2023-01-07T10:26:22.600Z,992.88
2023-01-07T10:27:22.535Z,992.83
2023-01-07T10:28:22.540Z,992.84
2023-01-07T10:29:22.526Z,992.88
2023-01-07T10:30:22.536Z,992.84
2023-01-07T10:31:22.558Z,992.82
2023-01-07T10:32:22.511Z,992.80
2023-01-07T10:33:22.494Z,992.79
2023-01-07T10:34:22.487Z,992.85
2023-01-07T10:35:22.669Z,992.81
2023-01-07T10:36:22.468Z,992.77
2023-01-07T10:37:22.455Z,992.75
2023-01-07T10:38:22.454Z,992.77
2023-01-07T10:39:22.577Z,992.75
2023-01-07T10:40:23.457Z,992.68
2023-01-07T10:41:22.494Z,992.76
2023-01-07T10:42:22.418Z,992.68
2023-01-07T10:43:22.433Z,992.71
2023-01-07T10:44:22.399Z,992.70
2023-01-07T10:45:22.390Z,992.67
2023-01-07T10:46:22.414Z,992.62
2023-01-07T10:47:22.382Z,992.57
2023-01-07T10:48:22.363Z,992.55
2023-01-07T10:49:22.371Z,992.54
2023-01-07T10:50:22.368Z,992.51
2023-01-07T10:51:22.377Z,992.51
2023-01-07T10:52:22.414Z,992.44
2023-01-07T10:53:22.344Z,992.47
2023-01-07T10:54:22.334Z,992.40
2023-01-07T10:55:22.391Z,992.45
2023-01-07T10:56:22.334Z,992.31
2023-01-07T10:57:22.354Z,992.36
2023-01-07T10:58:22.294Z,992.34
2023-01-07T10:59:22.290Z,992.32
2023-01-07T11:00:22.277Z,992.30
2023-01-07T11:01:22.414Z,992.28
2023-01-07T11:02:22.418Z,992.18
2023-01-07T11:03:22.270Z,992.19
2023-01-07T11:04:22.264Z,992.12
2023-01-07T11:05:22.255Z,992.14
2023-01-07T11:06:22.260Z,992.12
2023-01-07T11:07:22.239Z,992.13
2023-01-07T11:08:22.222Z,992.13
2023-01-07T11:09:22.387Z,992.08
2023-01-07T11:10:22.200Z,992.04
2023-01-07T11:11:22.313Z,992.08
2023-01-07T11:12:22.195Z,992.08
2023-01-07T11:13:22.186Z,992.06
2023-01-07T11:14:22.180Z,992.03
2023-01-07T11:15:22.162Z,992.03
2023-01-07T11:16:22.253Z,992.02
2023-01-07T11:17:22.151Z,992.02
2023-01-07T11:18:22.144Z,992.06
2023-01-07T11:19:22.183Z,991.99
2023-01-07T11:20:22.119Z,992.02
2023-01-07T11:21:43.416Z,991.98
2023-01-07T11:22:23.108Z,992.01
2023-01-07T11:23:22.099Z,991.96
2023-01-07T11:24:22.085Z,992.01
2023-01-07T11:25:22.078Z,991.89
2023-01-07T11:26:22.106Z,991.89
2023-01-07T11:27:22.156Z,991.90
2023-01-07T11:28:22.070Z,991.90
2023-01-07T11:29:22.076Z,991.86
2023-01-07T11:30:22.922Z,991.82
2023-01-07T11:31:22.190Z,991.81
2023-01-07T11:32:23.036Z,991.71
2023-01-07T11:33:22.026Z,991.74
2023-01-07T11:34:22.019Z,991.73
2023-01-07T11:35:22.991Z,991.75
2023-01-07T11:36:23.034Z,991.78
2023-01-07T11:37:22.011Z,991.73
2023-01-07T11:38:21.997Z,991.70
2023-01-07T11:39:22.016Z,991.65
2023-01-07T11:40:21.972Z,991.65
2023-01-07T11:41:22.003Z,991.62
2023-01-07T11:42:21.967Z,991.65
2023-01-07T11:43:22.039Z,991.60
2023-01-07T11:44:21.949Z,991.52
2023-01-07T11:45:21.930Z,991.56
2023-01-07T11:46:23.882Z,991.56
2023-01-07T11:47:22.953Z,991.56
2023-01-07T11:48:21.912Z,991.49
2023-01-07T11:49:21.933Z,991.48
2023-01-07T11:50:21.890Z,991.50
2023-01-07T11:51:21.929Z,991.44
2023-01-07T11:52:21.870Z,991.44
2023-01-07T11:53:21.928Z,991.41
2023-01-07T11:54:21.884Z,991.44
2023-01-07T11:55:21.856Z,991.41
2023-01-07T11:56:21.872Z,991.40
2023-01-07T11:57:21.846Z,991.30
2023-01-07T11:58:29.526Z,991.28
2023-01-07T11:59:22.891Z,991.28
2023-01-07T12:00:21.812Z,991.26
2023-01-07T12:01:21.910Z,991.27
2023-01-07T12:02:21.891Z,991.22
2023-01-07T12:03:21.864Z,991.26
2023-01-07T12:04:21.784Z,991.19
2023-01-07T12:05:21.779Z,991.18
2023-01-07T12:06:21.796Z,991.13
2023-01-07T12:07:21.772Z,991.14
2023-01-07T12:08:21.769Z,991.14
2023-01-07T12:09:21.735Z,991.11
2023-01-07T12:10:21.733Z,991.07
2023-01-07T12:11:21.757Z,991.03
2023-01-07T12:12:21.713Z,990.98
2023-01-07T12:13:21.714Z,990.91
2023-01-07T12:14:21.709Z,990.91
2023-01-07T12:15:21.875Z,990.84
2023-01-07T12:16:21.733Z,990.90
2023-01-07T12:17:21.680Z,990.84
2023-01-07T12:18:21.672Z,990.79
2023-01-07T12:19:21.665Z,990.79
2023-01-07T12:20:21.647Z,990.70
2023-01-07T12:21:21.674Z,990.71
2023-01-07T12:22:21.637Z,990.62
2023-01-07T12:23:21.653Z,990.67
2023-01-07T12:24:21.611Z,990.64
2023-01-07T12:25:22.623Z,990.65
2023-01-07T12:26:21.662Z,990.61
2023-01-07T12:27:21.601Z,990.62
2023-01-07T12:28:21.592Z,990.59